Time;durP1;ratioP1;P1;durP2;ratioP2;P2;SDS_P1;SDS_P2;PMS_P1;PMS_P2;Temp;Humidity;BMP_temperature;BMP_pressure;BME280_temperature;BME280_humidity;BME280_pressure;Samples;Min_cycle;Max_cycle;Signal;HPM_P1;HPM_P2
2021/09/13 00:00:58;;;;;;;2.60;2.20;;;15.10;99.90;;;;;;5144172;27;20187;-58
2021/09/13 00:03:25;;;;;;;7.50;2.50;;;15.10;99.90;;;;;;5146287;27;20180;-48
2021/09/13 00:05:53;;;;;;;2.67;1.70;;;15.10;99.90;;;;;;5145037;27;20607;-58
2021/09/13 00:08:19;;;;;;;4.33;2.30;;;15.10;99.90;;;;;;5105808;27;20212;-49
2021/09/13 00:10:46;;;;;;;5.17;2.13;;;15.00;99.90;;;;;;5125015;27;20204;-57
2021/09/13 00:13:13;;;;;;;4.67;1.73;;;15.00;99.90;;;;;;5123432;27;20189;-48
2021/09/13 00:15:41;;;;;;;4.53;2.13;;;15.00;99.90;;;;;;5125958;27;20212;-52
2021/09/13 00:18:09;;;;;;;6.07;2.13;;;14.90;99.90;;;;;;5122065;27;20189;-46
2021/09/13 00:20:38;;;;;;;6.03;2.13;;;14.90;99.90;;;;;;5125702;27;20187;-47
2021/09/13 00:23:05;;;;;;;6.63;2.10;;;14.90;99.90;;;;;;5108410;27;20200;-54
2021/09/13 00:25:32;;;;;;;2.73;1.83;;;15.00;99.90;;;;;;5115942;27;20251;-52
2021/09/13 00:27:59;;;;;;;6.07;2.60;;;15.00;99.90;;;;;;5133296;27;20192;-59
2021/09/13 00:30:25;;;;;;;5.40;2.50;;;14.90;99.90;;;;;;5143835;27;20203;-47
2021/09/13 00:32:53;;;;;;;4.90;2.70;;;14.90;99.90;;;;;;5144481;27;20207;-59
2021/09/13 00:35:25;;;;;;;3.93;2.63;;;14.90;99.90;;;;;;5144674;27;20290;-50
2021/09/13 00:37:53;;;;;;;6.60;2.43;;;14.90;99.90;;;;;;5135131;27;20645;-59
2021/09/13 00:40:20;;;;;;;3.10;2.50;;;14.80;99.90;;;;;;5111969;27;20193;-49
2021/09/13 00:42:48;;;;;;;8.73;2.50;;;14.80;99.90;;;;;;5122355;27;20184;-58
2021/09/13 00:45:15;;;;;;;4.53;2.33;;;14.80;99.90;;;;;;5113364;27;20220;-48
2021/09/13 00:47:41;;;;;;;4.07;2.43;;;14.80;99.90;;;;;;5104650;27;20198;-51
2021/09/13 00:50:10;;;;;;;10.77;2.70;;;14.80;99.90;;;;;;5100779;28;20262;-50
2021/09/13 00:52:38;;;;;;;7.47;2.60;;;14.80;99.90;;;;;;5103355;28;20217;-47
2021/09/13 00:55:06;;;;;;;2.83;2.30;;;14.80;99.90;;;;;;5093954;27;20232;-47
2021/09/13 00:57:33;;;;;;;4.43;2.57;;;14.70;99.90;;;;;;5123589;27;20204;-47
2021/09/13 01:00:00;;;;;;;5.77;2.63;;;14.70;99.90;;;;;;5120966;27;20193;-58
2021/09/13 01:02:26;;;;;;;5.37;2.63;;;14.70;99.90;;;;;;5123700;27;20192;-48
2021/09/13 01:04:53;;;;;;;4.33;2.80;;;14.70;99.90;;;;;;5121807;27;20224;-56
2021/09/13 01:07:20;;;;;;;9.47;2.70;;;14.70;99.90;;;;;;5121156;27;20195;-49
2021/09/13 01:09:48;;;;;;;6.03;2.93;;;14.70;99.90;;;;;;5120510;27;20192;-59
2021/09/13 01:12:16;;;;;;;7.43;3.30;;;14.70;99.90;;;;;;5114547;27;20230;-50
2021/09/13 01:14:43;;;;;;;8.27;3.70;;;14.80;99.90;;;;;;5122983;27;20215;-60
2021/09/13 01:17:10;;;;;;;6.37;2.83;;;14.80;99.90;;;;;;5121139;27;20212;-50
2021/09/13 01:19:38;;;;;;;3.30;3.00;;;14.80;99.90;;;;;;5123392;27;20300;-49
2021/09/13 01:22:06;;;;;;;5.27;2.67;;;14.80;99.90;;;;;;5113828;27;20228;-54
2021/09/13 01:24:42;;;;;;;4.33;3.00;;;14.80;99.90;;;;;;5118855;27;20287;-50
2021/09/13 01:27:11;;;;;;;3.40;3.10;;;14.80;99.90;;;;;;5101767;27;20196;-55
2021/09/13 01:29:39;;;;;;;5.60;2.63;;;14.80;99.90;;;;;;5122240;27;20196;-47
2021/09/13 01:32:07;;;;;;;8.07;3.90;;;14.90;99.90;;;;;;5119174;27;20269;-47
2021/09/13 01:34:47;;;;;;;6.60;2.93;;;14.90;99.90;;;;;;5122335;27;20219;-56
2021/09/13 01:37:16;;;;;;;7.93;3.03;;;15.00;99.90;;;;;;5120880;27;20245;-53
2021/09/13 01:39:44;;;;;;;3.37;3.07;;;15.00;99.90;;;;;;5122792;27;20201;-56
2021/09/13 01:42:13;;;;;;;3.57;3.23;;;15.00;99.90;;;;;;5101511;27;20253;-52
2021/09/13 01:44:39;;;;;;;5.63;3.43;;;15.00;99.90;;;;;;5123876;27;20538;-48
2021/09/13 01:47:07;;;;;;;5.30;3.90;;;15.00;99.90;;;;;;5119435;27;20196;-49
2021/09/13 01:49:34;;;;;;;7.40;3.43;;;15.00;99.90;;;;;;5123306;28;20207;-49
2021/09/13 01:52:01;;;;;;;8.37;4.10;;;15.00;99.90;;;;;;5119194;28;20223;-58
2021/09/13 01:54:28;;;;;;;9.63;4.17;;;15.00;99.90;;;;;;5121925;28;20208;-52
2021/09/13 01:56:56;;;;;;;8.67;4.47;;;15.00;99.90;;;;;;5113131;27;20568;-58
2021/09/13 01:59:30;;;;;;;7.50;3.60;;;15.10;99.90;;;;;;5122589;27;20279;-50
2021/09/13 02:01:56;;;;;;;6.00;3.43;;;15.10;99.90;;;;;;5120180;28;20189;-59
2021/09/13 02:04:23;;;;;;;4.80;4.17;;;15.10;99.90;;;;;;5122631;28;20203;-48
2021/09/13 02:06:50;;;;;;;7.27;4.00;;;15.10;99.90;;;;;;5122654;27;20653;-59
2021/09/13 02:09:16;;;;;;;7.90;4.93;;;15.10;99.90;;;;;;5120683;28;20288;-50
2021/09/13 02:11:43;;;;;;;5.90;4.10;;;15.10;99.90;;;;;;5122045;27;20215;-59
2021/09/13 02:14:11;;;;;;;5.40;3.90;;;15.10;99.90;;;;;;5108238;27;20189;-53
2021/09/13 02:16:38;;;;;;;5.27;4.00;;;15.10;99.90;;;;;;5122871;27;20222;-52
2021/09/13 02:19:08;;;;;;;7.37;3.63;;;15.20;99.90;;;;;;5120528;27;20256;-53
2021/09/13 02:21:35;;;;;;;4.27;3.50;;;15.20;99.90;;;;;;5127144;27;20214;-47
2021/09/13 02:24:01;;;;;;;6.07;4.10;;;15.20;99.90;;;;;;5122080;27;20201;-57
2021/09/13 02:26:28;;;;;;;5.77;4.23;;;15.20;99.90;;;;;;5131852;27;20273;-51
2021/09/13 02:28:55;;;;;;;7.90;3.20;;;15.20;99.90;;;;;;5125915;27;20656;-60
2021/09/13 02:31:23;;;;;;;5.27;3.23;;;15.20;99.90;;;;;;5126907;27;20200;-49
2021/09/13 02:33:50;;;;;;;8.70;3.53;;;15.30;99.90;;;;;;5126148;27;20181;-58
2021/09/13 02:36:17;;;;;;;6.20;3.93;;;15.30;99.90;;;;;;5125958;27;20406;-56
2021/09/13 02:38:43;;;;;;;7.20;3.60;;;15.30;99.90;;;;;;5126024;27;20193;-56
2021/09/13 02:41:10;;;;;;;7.73;4.00;;;15.30;99.90;;;;;;5124345;27;20192;-48
2021/09/13 02:43:38;;;;;;;7.70;4.33;;;15.20;99.90;;;;;;5118443;27;20200;-51
2021/09/13 02:46:04;;;;;;;8.87;4.60;;;15.30;99.90;;;;;;5122657;27;20251;-53
2021/09/13 02:48:33;;;;;;;8.10;5.27;;;15.30;99.90;;;;;;5126772;27;20204;-51
2021/09/13 02:51:04;;;;;;;10.90;5.90;;;15.20;99.90;;;;;;5122316;27;20188;-52
2021/09/13 02:53:34;;;;;;;14.17;5.93;;;15.20;99.90;;;;;;5126238;27;20220;-48
2021/09/13 02:56:00;;;;;;;11.67;6.37;;;15.20;99.90;;;;;;5127551;27;20618;-59
2021/09/13 02:58:27;;;;;;;9.77;6.33;;;15.20;99.90;;;;;;5141015;27;20191;-50
2021/09/13 03:00:54;;;;;;;10.10;6.97;;;15.20;99.90;;;;;;5107442;27;20220;-58
2021/09/13 03:03:20;;;;;;;9.13;6.87;;;15.20;99.90;;;;;;5126016;27;20177;-50
2021/09/13 03:05:49;;;;;;;10.87;6.67;;;15.20;99.90;;;;;;5126511;27;20303;-59
2021/09/13 03:08:18;;;;;;;12.00;7.03;;;15.20;99.90;;;;;;5123974;27;20245;-48
2021/09/13 03:10:45;;;;;;;12.37;7.87;;;15.20;99.90;;;;;;5125476;27;20200;-57
2021/09/13 03:13:13;;;;;;;9.10;8.07;;;15.20;99.90;;;;;;5119613;27;20223;-50
2021/09/13 03:15:39;;;;;;;9.30;8.20;;;15.20;99.90;;;;;;5117760;27;20262;-54
2021/09/13 03:18:06;;;;;;;15.47;8.67;;;15.20;99.90;;;;;;5121684;27;20196;-52
2021/09/13 03:20:33;;;;;;;14.37;8.17;;;15.20;99.90;;;;;;5125808;27;20860;-50
2021/09/13 03:23:01;;;;;;;11.60;8.23;;;15.20;99.90;;;;;;5121913;27;20208;-58
2021/09/13 03:25:28;;;;;;;13.07;7.20;;;15.20;99.90;;;;;;5126444;27;20215;-49
2021/09/13 03:27:58;;;;;;;9.43;6.77;;;15.30;99.90;;;;;;5122567;27;20200;-58
2021/09/13 03:30:27;;;;;;;9.40;6.93;;;15.20;99.90;;;;;;5111308;27;20234;-53
2021/09/13 03:32:54;;;;;;;11.47;7.10;;;15.20;99.90;;;;;;5123010;27;20219;-58
2021/09/13 03:35:21;;;;;;;9.77;6.63;;;15.30;99.90;;;;;;5124632;27;20253;-47
2021/09/13 03:37:48;;;;;;;11.17;6.97;;;15.20;99.90;;;;;;5124483;27;20203;-60
2021/09/13 03:40:16;;;;;;;10.07;7.33;;;15.30;99.90;;;;;;5123922;27;20184;-52
2021/09/13 03:42:43;;;;;;;9.60;6.50;;;15.30;99.90;;;;;;5125340;27;20204;-59
2021/09/13 03:45:11;;;;;;;13.47;7.07;;;15.30;99.90;;;;;;5123223;27;20984;-51
2021/09/13 03:47:51;;;;;;;10.33;7.17;;;15.30;99.90;;;;;;5104372;27;20214;-58
2021/09/13 03:50:18;;;;;;;12.10;6.97;;;15.30;99.90;;;;;;5123035;27;20196;-53
2021/09/13 03:52:47;;;;;;;11.03;6.63;;;15.40;99.90;;;;;;5124235;27;20307;-59
2021/09/13 03:55:16;;;;;;;10.90;6.43;;;15.40;99.90;;;;;;5122648;27;20216;-48
2021/09/13 03:57:43;;;;;;;8.17;7.00;;;15.40;99.90;;;;;;5126262;27;20180;-58
2021/09/13 04:00:11;;;;;;;11.10;6.70;;;15.40;99.90;;;;;;5121161;27;20831;-49
2021/09/13 04:02:44;;;;;;;13.13;7.07;;;15.40;99.90;;;;;;5113153;27;20201;-49
2021/09/13 04:05:17;;;;;;;11.40;6.73;;;15.40;99.90;;;;;;5121955;27;20231;-49
2021/09/13 04:08:07;;;;;;;10.00;6.37;;;15.40;99.90;;;;;;5123620;27;20204;-59
2021/09/13 04:11:06;;;;;;;8.57;7.17;;;15.40;99.90;;;;;;5123506;27;20715;-59
2021/09/13 04:13:50;;;;;;;10.07;6.80;;;15.40;99.90;;;;;;5116953;27;20231;-57
2021/09/13 04:16:25;;;;;;;12.50;7.67;;;15.30;99.90;;;;;;5136071;27;20219;-56
2021/09/13 04:19:08;;;;;;;13.77;7.30;;;15.40;99.90;;;;;;5102159;27;20201;-51
2021/09/13 04:21:54;;;;;;;16.00;7.63;;;15.40;99.90;;;;;;5123580;27;20223;-59
2021/09/13 04:24:41;;;;;;;16.13;7.70;;;15.40;99.90;;;;;;5123955;27;20192;-49
2021/09/13 04:27:30;;;;;;;10.87;7.87;;;15.40;99.90;;;;;;5125810;27;20864;-52
2021/09/13 04:30:26;;;;;;;12.00;7.67;;;15.40;99.90;;;;;;5123869;27;20207;-53
2021/09/13 04:33:11;;;;;;;13.73;8.13;;;15.30;99.90;;;;;;5108749;27;20785;-50
2021/09/13 04:35:51;;;;;;;11.03;7.73;;;15.40;99.90;;;;;;5122436;27;20212;-60
2021/09/13 04:38:56;;;;;;;12.77;8.30;;;15.30;99.90;;;;;;5078683;28;20233;-59
2021/09/13 04:41:43;;;;;;;12.83;8.10;;;15.30;99.90;;;;;;5051453;28;20648;-57
2021/09/13 04:44:35;;;;;;;11.47;8.67;;;15.30;99.90;;;;;;5109849;27;20211;-47
2021/09/13 04:47:26;;;;;;;11.00;8.00;;;15.40;99.90;;;;;;5132240;27;20206;-49
2021/09/13 04:50:12;;;;;;;11.37;7.63;;;15.30;99.90;;;;;;5110893;27;20203;-52
2021/09/13 04:52:57;;;;;;;11.30;7.70;;;15.30;99.90;;;;;;5122221;27;20362;-58
2021/09/13 04:55:24;;;;;;;10.17;7.33;;;15.30;99.90;;;;;;5124408;27;20643;-55
2021/09/13 04:57:51;;;;;;;11.77;7.53;;;15.30;99.90;;;;;;5122513;27;20202;-57
2021/09/13 05:00:21;;;;;;;8.60;6.73;;;15.40;99.90;;;;;;5121477;27;20926;-47
2021/09/13 05:02:49;;;;;;;15.50;8.53;;;15.40;99.90;;;;;;5122767;27;20195;-56
2021/09/13 05:05:16;;;;;;;14.73;8.20;;;15.40;99.90;;;;;;5101570;27;20964;-47
2021/09/13 05:07:43;;;;;;;8.57;6.90;;;15.40;99.90;;;;;;5123627;27;20189;-58
2021/09/13 05:10:10;;;;;;;13.47;6.50;;;15.40;99.90;;;;;;5119450;27;20180;-48
2021/09/13 05:12:37;;;;;;;13.10;7.43;;;15.40;99.90;;;;;;5123526;27;20205;-49
2021/09/13 05:15:04;;;;;;;11.20;6.90;;;15.40;99.90;;;;;;5119700;27;20303;-48
2021/09/13 05:17:32;;;;;;;10.90;5.80;;;15.40;99.90;;;;;;5112810;27;20199;-60
2021/09/13 05:19:58;;;;;;;8.97;5.83;;;15.40;99.90;;;;;;5104078;27;20221;-48
2021/09/13 05:22:25;;;;;;;8.53;5.23;;;15.30;99.90;;;;;;5113830;27;20208;-57
2021/09/13 05:24:52;;;;;;;8.17;4.80;;;15.40;99.90;;;;;;5121577;27;21036;-48
2021/09/13 05:27:19;;;;;;;8.63;5.23;;;15.40;99.90;;;;;;5121907;27;20287;-58
2021/09/13 05:29:46;;;;;;;7.67;4.40;;;15.40;99.90;;;;;;5121767;27;20177;-51
2021/09/13 05:32:13;;;;;;;9.73;4.40;;;15.40;99.90;;;;;;5111871;27;20189;-59
2021/09/13 05:34:41;;;;;;;8.90;4.10;;;15.40;99.90;;;;;;5111240;27;20193;-48
2021/09/13 05:37:08;;;;;;;5.23;4.00;;;15.50;99.90;;;;;;5105525;27;20200;-60
2021/09/13 05:39:35;;;;;;;11.93;4.43;;;15.40;99.90;;;;;;5118926;27;20208;-47
2021/09/13 05:42:06;;;;;;;13.37;4.57;;;15.40;99.90;;;;;;5120332;27;20180;-58
2021/09/13 05:44:41;;;;;;;8.30;3.70;;;15.40;99.90;;;;;;5120928;27;20192;-52
2021/09/13 05:47:08;;;;;;;6.77;4.40;;;15.50;99.90;;;;;;5117364;27;20250;-55
2021/09/13 05:49:35;;;;;;;7.93;3.73;;;15.50;99.90;;;;;;5107425;27;20197;-50
2021/09/13 05:52:04;;;;;;;7.03;3.93;;;15.50;99.90;;;;;;5106401;27;20209;-58
2021/09/13 05:54:37;;;;;;;10.40;4.20;;;15.50;99.90;;;;;;5122923;27;20565;-48
2021/09/13 05:57:04;;;;;;;8.60;4.70;;;15.50;99.90;;;;;;5115996;27;20350;-53
2021/09/13 05:59:31;;;;;;;11.07;4.40;;;15.50;99.90;;;;;;5120950;27;20779;-58
2021/09/13 06:02:08;;;;;;;6.87;4.73;;;15.50;99.90;;;;;;5117964;27;20280;-48
2021/09/13 06:04:35;;;;;;;9.03;4.37;;;15.50;99.90;;;;;;5114294;27;20572;-59
2021/09/13 06:07:07;;;;;;;7.93;4.60;;;15.50;99.90;;;;;;5117817;27;20202;-51
2021/09/13 06:09:34;;;;;;;9.20;4.90;;;15.60;99.90;;;;;;5117102;27;20193;-56
2021/09/13 06:12:01;;;;;;;12.47;4.60;;;15.60;99.90;;;;;;5120146;27;20196;-50
2021/09/13 06:14:37;;;;;;;8.90;4.07;;;15.60;99.90;;;;;;5110309;27;20188;-56
2021/09/13 06:17:04;;;;;;;6.10;3.67;;;15.50;99.90;;;;;;5109820;27;21001;-49
2021/09/13 06:19:30;;;;;;;6.93;3.90;;;15.60;99.90;;;;;;5123671;27;20719;-56
2021/09/13 06:21:57;;;;;;;7.87;3.70;;;15.60;99.90;;;;;;5107006;27;21968;-49
2021/09/13 06:24:28;;;;;;;9.87;3.70;;;15.50;99.90;;;;;;5124398;27;20833;-49
2021/09/13 06:26:54;;;;;;;11.00;4.13;;;15.60;99.90;;;;;;5113805;27;20293;-51
2021/09/13 06:29:21;;;;;;;5.97;3.20;;;15.60;99.90;;;;;;5121070;27;20203;-50
2021/09/13 06:31:48;;;;;;;7.90;3.57;;;15.60;99.90;;;;;;5124120;27;20911;-49
2021/09/13 06:34:17;;;;;;;6.97;3.37;;;15.60;99.90;;;;;;5121302;27;20571;-53
2021/09/13 06:36:46;;;;;;;9.03;3.10;;;15.60;99.90;;;;;;5126160;27;20216;-59
2021/09/13 06:39:15;;;;;;;12.20;3.70;;;15.70;99.90;;;;;;5106976;27;20216;-48
2021/09/13 06:41:42;;;;;;;11.93;3.13;;;15.70;99.90;;;;;;5112638;27;20207;-58
2021/09/13 06:44:12;;;;;;;5.27;2.93;;;15.70;99.90;;;;;;5126216;27;20266;-53
2021/09/13 06:46:45;;;;;;;6.90;3.00;;;15.80;99.90;;;;;;5124257;27;20288;-60
2021/09/13 06:49:12;;;;;;;9.10;2.90;;;15.80;99.90;;;;;;5118710;27;20335;-48
2021/09/13 06:51:39;;;;;;;5.87;2.70;;;15.80;99.90;;;;;;5114947;27;20284;-57
2021/09/13 06:54:06;;;;;;;5.10;2.40;;;15.70;99.90;;;;;;5111115;27;20212;-51
2021/09/13 06:56:33;;;;;;;7.07;2.40;;;15.70;99.90;;;;;;5105199;27;20800;-50
2021/09/13 06:59:01;;;;;;;4.73;2.03;;;15.70;99.90;;;;;;5125501;27;20676;-58
2021/09/13 07:01:31;;;;;;;6.60;2.30;;;15.70;99.90;;;;;;5121075;27;20238;-54
2021/09/13 07:03:58;;;;;;;6.47;2.37;;;15.80;99.90;;;;;;5129663;27;20196;-60
2021/09/13 07:06:26;;;;;;;6.03;2.27;;;15.80;99.90;;;;;;5119387;27;20208;-55
2021/09/13 07:08:53;;;;;;;10.93;2.63;;;15.80;99.90;;;;;;5115473;27;20221;-51
2021/09/13 07:11:20;;;;;;;9.10;2.70;;;15.90;99.90;;;;;;5115148;27;20209;-50
2021/09/13 07:13:47;;;;;;;10.73;2.47;;;15.90;99.90;;;;;;5120248;27;20312;-50
2021/09/13 07:16:16;;;;;;;7.17;2.17;;;15.90;99.90;;;;;;5118394;27;20200;-52
2021/09/13 07:18:42;;;;;;;5.70;2.10;;;15.90;99.90;;;;;;5122519;27;20192;-50
2021/09/13 07:21:09;;;;;;;7.57;2.53;;;15.90;99.90;;;;;;5119319;27;20266;-60
2021/09/13 07:23:36;;;;;;;8.40;2.33;;;15.90;99.90;;;;;;5108470;27;20209;-48
2021/09/13 07:26:03;;;;;;;10.60;2.47;;;15.90;99.90;;;;;;5115762;27;20701;-59
2021/09/13 07:28:30;;;;;;;8.07;2.30;;;15.90;99.90;;;;;;5123064;27;20203;-51
2021/09/13 07:30:57;;;;;;;8.03;2.30;;;15.90;99.90;;;;;;5120962;27;20200;-58
2021/09/13 07:33:25;;;;;;;8.67;2.30;;;15.80;99.90;;;;;;5113376;27;20224;-48
2021/09/13 07:35:52;;;;;;;8.77;2.40;;;15.80;99.90;;;;;;5125616;27;20223;-49
2021/09/13 07:38:19;;;;;;;5.63;2.03;;;15.80;99.90;;;;;;5106029;27;21078;-53
2021/09/13 07:40:46;;;;;;;3.53;1.90;;;15.90;99.90;;;;;;5118701;27;20666;-48
2021/09/13 07:43:12;;;;;;;4.73;1.50;;;15.90;99.90;;;;;;5113071;27;20558;-58
2021/09/13 07:45:39;;;;;;;6.30;1.60;;;16.00;99.90;;;;;;5121617;27;20216;-54
2021/09/13 07:48:06;;;;;;;4.77;1.37;;;16.00;99.90;;;;;;5118413;27;20292;-58
2021/09/13 07:50:34;;;;;;;8.13;2.27;;;16.00;99.90;;;;;;5115162;27;20200;-54
2021/09/13 07:53:01;;;;;;;6.93;2.10;;;16.00;99.90;;;;;;5108909;27;20200;-60
2021/09/13 07:55:28;;;;;;;8.43;1.80;;;16.00;99.90;;;;;;5113698;27;20209;-48
2021/09/13 07:57:54;;;;;;;4.97;1.57;;;16.00;99.90;;;;;;5122649;27;20193;-58
2021/09/13 08:00:21;;;;;;;9.03;1.90;;;16.00;99.90;;;;;;5113649;27;20810;-48
2021/09/13 08:02:48;;;;;;;7.07;1.70;;;16.00;99.90;;;;;;5115215;27;20185;-49
2021/09/13 08:05:14;;;;;;;8.70;1.83;;;16.00;99.90;;;;;;5117570;27;20220;-50
2021/09/13 08:07:42;;;;;;;5.40;1.40;;;16.00;99.90;;;;;;5128972;27;20197;-49
2021/09/13 08:10:10;;;;;;;2.30;1.30;;;16.00;99.90;;;;;;5110209;27;20226;-57
2021/09/13 08:12:38;;;;;;;8.23;2.17;;;16.00;99.90;;;;;;5122267;27;20181;-53
2021/09/13 08:15:06;;;;;;;7.03;1.60;;;16.00;99.90;;;;;;5112476;27;20232;-59
2021/09/13 08:17:33;;;;;;;9.13;1.80;;;16.00;99.90;;;;;;5121473;27;20675;-49
2021/09/13 08:20:00;;;;;;;6.67;1.93;;;16.10;99.90;;;;;;5106556;27;20219;-59
2021/09/13 08:22:27;;;;;;;5.57;1.97;;;16.10;99.90;;;;;;5113686;27;20197;-49
2021/09/13 08:24:56;;;;;;;8.97;1.50;;;16.10;99.90;;;;;;5131233;27;20204;-62
2021/09/13 08:27:35;;;;;;;5.27;1.40;;;16.10;99.90;;;;;;5122146;27;20212;-48
2021/09/13 08:30:02;;;;;;;6.03;2.13;;;16.10;99.90;;;;;;5118862;27;20197;-59
2021/09/13 08:32:28;;;;;;;6.00;1.20;;;16.20;99.90;;;;;;5116886;27;20189;-51
2021/09/13 08:34:55;;;;;;;9.00;1.57;;;16.20;99.90;;;;;;5120543;27;20800;-59
2021/09/13 08:37:22;;;;;;;8.53;1.47;;;16.20;99.90;;;;;;5119239;27;20188;-52
2021/09/13 08:39:48;;;;;;;4.73;2.37;;;16.30;99.90;;;;;;5128535;27;20220;-53
2021/09/13 08:42:17;;;;;;;7.17;2.23;;;16.30;99.90;;;;;;5096351;27;20200;-51
2021/09/13 08:44:46;;;;;;;6.23;1.97;;;16.30;99.90;;;;;;5120409;27;20199;-50
2021/09/13 08:47:18;;;;;;;5.00;1.50;;;16.40;99.90;;;;;;5114766;27;20279;-59
2021/09/13 08:49:47;;;;;;;6.17;1.63;;;16.40;99.90;;;;;;5110853;27;20689;-50
2021/09/13 08:52:14;;;;;;;5.33;1.30;;;16.40;99.90;;;;;;5115955;27;20205;-48
2021/09/13 08:54:41;;;;;;;3.93;1.33;;;16.50;99.90;;;;;;5124138;27;20201;-48
2021/09/13 08:57:08;;;;;;;7.87;1.37;;;16.50;99.90;;;;;;5107966;27;20595;-61
2021/09/13 08:59:37;;;;;;;5.23;1.37;;;16.50;99.90;;;;;;5116441;27;20215;-51
2021/09/13 09:02:05;;;;;;;5.47;1.80;;;16.60;99.90;;;;;;5113194;27;20208;-58
2021/09/13 09:04:32;;;;;;;12.47;1.70;;;16.70;99.90;;;;;;5120944;27;20292;-49
2021/09/13 09:07:07;;;;;;;8.43;1.33;;;16.70;99.90;;;;;;5135622;27;20523;-58
2021/09/13 09:09:34;;;;;;;2.77;1.30;;;16.60;99.90;;;;;;5119154;27;20192;-50
2021/09/13 09:12:05;;;;;;;6.87;1.87;;;16.70;99.90;;;;;;5106749;27;20837;-59
2021/09/13 09:14:40;;;;;;;3.27;1.23;;;16.70;99.90;;;;;;5118247;27;20212;-53
2021/09/13 09:17:10;;;;;;;4.33;1.40;;;16.80;99.90;;;;;;5117668;27;20212;-59
2021/09/13 09:19:37;;;;;;;6.67;1.60;;;16.80;99.90;;;;;;5121374;27;20283;-50
2021/09/13 09:22:24;;;;;;;7.87;1.27;;;16.80;99.90;;;;;;5119707;27;20275;-60
2021/09/13 09:24:53;;;;;;;5.33;1.80;;;16.80;99.90;;;;;;5114698;27;20223;-48
2021/09/13 09:27:20;;;;;;;5.67;1.20;;;16.80;99.90;;;;;;5101909;27;20280;-49
2021/09/13 09:29:48;;;;;;;5.53;1.90;;;16.80;99.90;;;;;;5118261;27;20204;-52
2021/09/13 09:32:23;;;;;;;2.60;1.10;;;16.80;99.90;;;;;;5097573;27;20173;-49
2021/09/13 09:34:51;;;;;;;4.30;1.57;;;16.80;99.90;;;;;;5117108;27;20225;-51
2021/09/13 09:37:19;;;;;;;8.20;1.67;;;16.90;99.90;;;;;;5127661;27;20185;-49
2021/09/13 09:39:49;;;;;;;7.60;1.80;;;16.90;99.90;;;;;;5123585;27;20204;-49
2021/09/13 09:42:28;;;;;;;3.63;1.67;;;16.90;99.90;;;;;;5119853;27;20192;-48
2021/09/13 09:44:57;;;;;;;6.13;1.30;;;17.00;99.90;;;;;;5107607;27;20250;-60
2021/09/13 09:47:24;;;;;;;7.40;1.63;;;16.90;99.90;;;;;;5112021;27;21040;-48
2021/09/13 09:49:52;;;;;;;5.27;1.70;;;16.90;99.90;;;;;;5123720;27;20192;-49
2021/09/13 09:52:34;;;;;;;5.90;1.33;;;16.90;99.90;;;;;;5120308;27;20928;-51
2021/09/13 09:55:13;;;;;;;6.97;2.43;;;16.80;99.90;;;;;;5121609;27;20220;-58
2021/09/13 09:57:41;;;;;;;7.33;1.33;;;16.80;99.90;;;;;;5105798;27;20681;-48
2021/09/13 10:00:26;;;;;;;4.97;1.70;;;16.80;99.90;;;;;;5109514;27;20677;-58
2021/09/13 10:02:53;;;;;;;5.80;1.30;;;16.70;99.90;;;;;;5116798;27;20620;-53
2021/09/13 10:05:21;;;;;;;5.27;1.37;;;16.60;99.90;;;;;;5110775;27;20953;-48
2021/09/13 10:07:49;;;;;;;2.80;1.60;;;16.60;99.90;;;;;;5120876;27;20657;-50
2021/09/13 10:10:16;;;;;;;4.10;1.23;;;16.50;99.90;;;;;;5109550;27;20280;-48
2021/09/13 10:12:44;;;;;;;6.37;1.77;;;16.40;99.90;;;;;;5120475;27;20189;-49
2021/09/13 10:15:12;;;;;;;4.87;1.53;;;16.40;99.90;;;;;;5099306;27;20227;-59
2021/09/13 10:17:40;;;;;;;4.67;1.37;;;16.40;99.90;;;;;;5118907;27;20200;-48
2021/09/13 10:20:08;;;;;;;5.03;1.60;;;16.40;99.90;;;;;;5114762;27;20201;-58
2021/09/13 10:22:37;;;;;;;3.93;1.50;;;16.30;99.90;;;;;;5123226;27;20606;-55
2021/09/13 10:25:06;;;;;;;4.67;1.40;;;16.30;99.90;;;;;;5115172;27;20298;-59
2021/09/13 10:27:35;;;;;;;7.53;1.23;;;16.40;99.90;;;;;;5120569;27;20203;-51
2021/09/13 10:30:17;;;;;;;4.40;1.37;;;16.50;99.90;;;;;;5114881;27;20200;-58
2021/09/13 10:32:45;;;;;;;3.87;1.13;;;16.60;99.90;;;;;;5110237;27;20204;-52
2021/09/13 10:35:14;;;;;;;3.13;1.60;;;16.70;99.90;;;;;;5110941;27;20223;-59
2021/09/13 10:37:44;;;;;;;2.93;1.20;;;16.80;99.90;;;;;;5128219;27;20197;-48
2021/09/13 10:40:21;;;;;;;4.60;1.40;;;16.90;99.90;;;;;;5096149;27;20201;-50
2021/09/13 10:42:51;;;;;;;7.53;1.40;;;17.00;99.90;;;;;;5109849;27;20961;-51
2021/09/13 10:45:24;;;;;;;8.07;1.87;;;17.10;99.90;;;;;;5118267;27;20220;-59
2021/09/13 10:48:07;;;;;;;3.90;1.00;;;17.10;99.90;;;;;;5124420;27;20305;-48
2021/09/13 10:50:46;;;;;;;5.27;1.13;;;17.20;99.90;;;;;;5119163;27;20191;-48
2021/09/13 10:53:34;;;;;;;6.53;1.50;;;17.30;99.90;;;;;;5107144;27;20197;-59
2021/09/13 10:56:03;;;;;;;5.37;1.47;;;17.40;99.90;;;;;;5108868;27;20229;-50
2021/09/13 10:58:43;;;;;;;3.13;1.20;;;17.50;99.90;;;;;;5106637;27;20204;-52
2021/09/13 11:01:20;;;;;;;3.90;1.27;;;17.60;99.90;;;;;;5111618;27;20568;-59
2021/09/13 11:04:03;;;;;;;4.47;1.60;;;17.70;99.90;;;;;;5106988;27;21080;-53
2021/09/13 11:06:40;;;;;;;3.33;1.13;;;17.80;99.90;;;;;;5108299;27;20213;-55
2021/09/13 11:09:10;;;;;;;1.50;0.93;;;17.90;99.90;;;;;;5143879;27;20188;-48
2021/09/13 11:11:41;;;;;;;2.17;1.47;;;17.90;99.90;;;;;;5106499;27;20378;-49
2021/09/13 11:14:10;;;;;;;2.30;1.20;;;17.90;99.90;;;;;;5125196;27;20430;-49
2021/09/13 11:16:39;;;;;;;2.43;1.40;;;18.00;99.90;;;;;;5111359;27;20220;-50
2021/09/13 11:19:11;;;;;;;4.53;1.83;;;18.00;99.90;;;;;;5099184;27;20215;-48
2021/09/13 11:21:41;;;;;;;2.50;1.20;;;18.00;99.90;;;;;;5106063;27;20208;-50
2021/09/13 11:24:10;;;;;;;3.47;1.27;;;17.90;99.90;;;;;;5122500;27;20227;-51
2021/09/13 11:26:40;;;;;;;4.30;1.37;;;17.80;99.90;;;;;;5116017;27;20204;-47
2021/09/13 11:29:09;;;;;;;3.90;1.60;;;17.80;99.90;;;;;;5119162;27;20254;-52
2021/09/13 11:31:40;;;;;;;2.13;1.00;;;17.70;99.90;;;;;;5107201;27;20192;-48
2021/09/13 11:34:29;;;;;;;3.80;1.30;;;17.60;99.90;;;;;;5108133;27;20211;-55
2021/09/13 11:37:03;;;;;;;4.00;1.33;;;17.60;99.90;;;;;;5124150;27;20199;-51
2021/09/13 11:39:32;;;;;;;2.37;1.00;;;17.50;99.90;;;;;;5117685;27;20257;-50
2021/09/13 11:42:02;;;;;;;5.60;1.53;;;17.60;99.90;;;;;;5125139;27;20279;-53
2021/09/13 11:44:30;;;;;;;2.30;1.10;;;17.60;99.90;;;;;;5118390;27;20215;-57
2021/09/13 11:46:59;;;;;;;2.43;1.23;;;17.70;99.90;;;;;;5108469;27;20294;-54
2021/09/13 11:49:29;;;;;;;3.37;1.30;;;17.70;99.90;;;;;;5104948;27;20211;-50
2021/09/13 11:52:02;;;;;;;4.17;1.20;;;17.80;99.90;;;;;;5112717;27;20212;-51
2021/09/13 11:54:30;;;;;;;2.77;1.10;;;17.70;99.90;;;;;;5115029;27;20214;-50
2021/09/13 11:57:00;;;;;;;2.27;1.00;;;17.70;99.90;;;;;;5119823;27;20205;-47
2021/09/13 11:59:27;;;;;;;2.23;1.10;;;17.70;99.90;;;;;;5102683;27;20200;-52
2021/09/13 12:01:59;;;;;;;4.47;1.03;;;17.70;99.90;;;;;;5123652;27;20241;-52
2021/09/13 12:04:27;;;;;;;2.30;1.00;;;17.70;99.90;;;;;;5109179;27;20193;-47
2021/09/13 12:07:09;;;;;;;2.63;1.20;;;17.70;99.90;;;;;;5102124;27;20270;-47
2021/09/13 12:09:37;;;;;;;2.47;0.97;;;17.70;99.90;;;;;;5111062;27;20200;-47
2021/09/13 12:12:04;;;;;;;5.00;1.20;;;17.70;99.90;;;;;;5118445;27;20189;-57
2021/09/13 12:14:33;;;;;;;4.77;1.17;;;17.60;99.90;;;;;;5114369;27;20311;-52
2021/09/13 12:17:09;;;;;;;2.90;1.03;;;17.70;99.90;;;;;;5112654;27;20203;-51
2021/09/13 12:19:36;;;;;;;3.97;0.97;;;17.70;99.90;;;;;;5106918;27;20722;-60
2021/09/13 12:22:04;;;;;;;3.60;0.90;;;17.60;99.90;;;;;;5096291;27;20240;-54
2021/09/13 12:24:33;;;;;;;2.07;1.10;;;17.60;99.90;;;;;;5114020;27;20205;-57
2021/09/13 12:27:23;;;;;;;4.40;1.67;;;17.70;99.90;;;;;;5115040;27;20186;-48
2021/09/13 12:29:54;;;;;;;2.03;0.80;;;17.70;99.90;;;;;;5117925;27;20193;-50
2021/09/13 12:32:23;;;;;;;3.00;1.10;;;17.70;99.90;;;;;;5118439;27;20561;-54
2021/09/13 12:34:58;;;;;;;2.30;1.30;;;17.70;99.90;;;;;;5107989;27;20200;-53
2021/09/13 12:37:26;;;;;;;4.77;1.30;;;17.80;99.90;;;;;;5106071;27;20260;-58
2021/09/13 12:40:10;;;;;;;2.07;1.17;;;17.80;99.90;;;;;;5111569;27;20433;-52
2021/09/13 12:42:38;;;;;;;6.87;1.53;;;17.80;99.90;;;;;;5109467;27;20276;-60
2021/09/13 12:45:06;;;;;;;2.23;1.40;;;17.80;99.90;;;;;;5116188;27;20205;-48
2021/09/13 12:47:33;;;;;;;3.83;0.93;;;17.80;99.90;;;;;;5105302;27;20212;-59
2021/09/13 12:50:00;;;;;;;5.17;0.90;;;17.80;99.90;;;;;;5114414;27;20196;-52
2021/09/13 12:52:26;;;;;;;2.43;1.37;;;17.80;99.90;;;;;;5108807;27;20272;-59
2021/09/13 12:54:53;;;;;;;4.13;1.23;;;17.90;99.90;;;;;;5108662;27;20333;-49
2021/09/13 12:57:37;;;;;;;6.73;0.90;;;17.90;99.90;;;;;;5115202;27;20596;-51
2021/09/13 13:00:15;;;;;;;3.30;1.00;;;18.00;99.90;;;;;;5103747;27;20199;-58